Time;durP1;ratioP1;P1;durP2;ratioP2;P2;SDS_P1;SDS_P2;PMS_P1;PMS_P2;Temp;Humidity;BMP_temperature;BMP_pressure;BME280_temperature;BME280_humidity;BME280_pressure;Samples;Min_cycle;Max_cycle;Signal;HPM_P1;HPM_P2
2023/01/20 00:00:27;;;;;;;;;;;;;;;;;;5032579;28;1169;-77
2023/01/20 00:02:53;;;;;;;;;;;;;;;;;;5015416;28;1209;-77
2023/01/20 00:05:22;;;;;;;;;;;;;;;;;;5016859;28;1895;-77
2023/01/20 00:07:47;;;;;;;;;;;;;;;;;;5033543;28;1334;-77
2023/01/20 00:10:13;;;;;;;;;;;;;;;;;;5016412;28;1275;-77
2023/01/20 00:12:38;;;;;;;;;;;;;;;;;;5035132;28;908;-77
2023/01/20 00:15:04;;;;;;;;;;;;;;;;;;5032874;28;1484;-77
2023/01/20 00:17:29;;;;;;;;;;;;;;;;;;5016532;28;1311;-77
2023/01/20 00:19:55;;;;;;;;;;;;;;;;;;5016839;28;1205;-76
2023/01/20 00:22:21;;;;;;;;;;;;;;;;;;5017860;28;1374;-76
2023/01/20 00:24:46;;;;;;;;;;;;;;;;;;5017026;28;1882;-77
2023/01/20 00:27:11;;;;;;;;;;;;;;;;;;5017197;28;1201;-76
2023/01/20 00:29:36;;;;;;;;;;;;;;;;;;5033493;28;821;-76
2023/01/20 00:32:02;;;;;;;;;;;;;;;;;;5033766;28;1311;-76
2023/01/20 00:34:27;;;;;;;;;;;;;;;;;;5033451;28;900;-76
2023/01/20 00:36:52;;;;;;;;;;;;;;;;;;5032750;28;1237;-73
2023/01/20 00:39:18;;;;;;;;;;;;;;;;;;5031526;28;861;-74
2023/01/20 00:41:43;;;;;;;;;;;;;;;;;;5031471;28;1213;-76
2023/01/20 00:44:08;;;;;;;;;;;;;;;;;;5015623;28;1091;-76
2023/01/20 00:46:34;;;;;;;;;;;;;;;;;;5031937;28;1906;-76
2023/01/20 00:48:59;;;;;;;;;;;;;;;;;;5033315;28;852;-76
2023/01/20 00:51:24;;;;;;;;;;;;;;;;;;5032004;28;904;-76
2023/01/20 00:53:50;;;;;;;;;;;;;;;;;;5031937;28;802;-76
2023/01/20 00:56:15;;;;;;;;;;;;;;;;;;5015694;28;1398;-76
2023/01/20 00:58:42;;;;;;;;;;;;;;;;;;5033209;28;964;-76
2023/01/20 01:01:07;;;;;;;;;;;;;;;;;;5032233;28;891;-76
2023/01/20 01:03:32;;;;;;;;;;;;;;;;;;5032401;28;858;-77
2023/01/20 01:06:05;;;;;;;;;;;;;;;;;;5015770;28;1903;-77
2023/01/20 01:08:30;;;;;;;;;;;;;;;;;;5033272;28;1292;-77
2023/01/20 01:10:55;;;;;;;;;;;;;;;;;;5032802;28;1170;-77
2023/01/20 01:13:20;;;;;;;;;;;;;;;;;;5032708;28;1499;-76
2023/01/20 01:15:48;;;;;;;;;;;;;;;;;;5014701;28;1401;-77
2023/01/20 01:18:13;;;;;;;;;;;;;;;;;;5031557;28;1153;-76
2023/01/20 01:20:43;;;;;;;;;;;;;;;;;;5031515;28;1236;-76
2023/01/20 01:23:09;;;;;;;;;;;;;;;;;;5031565;28;1251;-76
2023/01/20 01:25:35;;;;;;;;;;;;;;;;;;5014481;28;1983;-77
2023/01/20 01:28:01;;;;;;;;;;;;;;;;;;5031619;28;1393;-76
2023/01/20 01:30:26;;;;;;;;;;;;;;;;;;5032427;28;845;-76
2023/01/20 01:32:51;;;;;;;;;;;;;;;;;;5031185;28;1055;-76
2023/01/20 01:35:17;;;;;;;;;;;;;;;;;;5015167;28;1291;-76
2023/01/20 01:37:42;;;;;;;;;;;;;;;;;;5014949;28;1405;-76
2023/01/20 01:40:08;;;;;;;;;;;;;;;;;;5031295;28;917;-76
2023/01/20 01:42:33;;;;;;;;;;;;;;;;;;5014674;28;1346;-76
2023/01/20 01:45:10;;;;;;;;;;;;;;;;;;5032850;28;1886;-76
2023/01/20 01:47:43;;;;;;;;;;;;;;;;;;5032694;28;901;-76
2023/01/20 01:50:12;;;;;;;;;;;;;;;;;;5032531;28;903;-76
2023/01/20 01:52:39;;;;;;;;;;;;;;;;;;5031088;28;1181;-76
2023/01/20 01:55:04;;;;;;;;;;;;;;;;;;5032342;28;967;-76
2023/01/20 01:57:30;;;;;;;;;;;;;;;;;;5030750;28;944;-76
2023/01/20 01:59:56;;;;;;;;;;;;;;;;;;5030605;28;1290;-76
2023/01/20 02:02:21;;;;;;;;;;;;;;;;;;5031205;28;1437;-76
2023/01/20 02:04:47;;;;;;;;;;;;;;;;;;5030360;28;1918;-76
2023/01/20 02:07:14;;;;;;;;;;;;;;;;;;5014211;28;1363;-77
2023/01/20 02:09:40;;;;;;;;;;;;;;;;;;5030337;28;1319;-76
2023/01/20 02:12:07;;;;;;;;;;;;;;;;;;5031682;28;817;-76
2023/01/20 02:14:34;;;;;;;;;;;;;;;;;;5032023;28;912;-76
2023/01/20 02:17:18;;;;;;;;;;;;;;;;;;5031097;28;1198;-76
2023/01/20 02:20:02;;;;;;;;;;;;;;;;;;5030806;28;1164;-76
2023/01/20 02:22:46;;;;;;;;;;;;;;;;;;5030801;28;1288;-76
2023/01/20 02:25:30;;;;;;;;;;;;;;;;;;5030613;28;1910;-76
2023/01/20 02:28:14;;;;;;;;;;;;;;;;;;5031724;28;825;-76
2023/01/20 02:30:42;;;;;;;;;;;;;;;;;;5031244;28;908;-76
2023/01/20 02:33:11;;;;;;;;;;;;;;;;;;5031169;28;1023;-76
2023/01/20 02:35:49;;;;;;;;;;;;;;;;;;5031408;28;893;-76
2023/01/20 02:38:32;;;;;;;;;;;;;;;;;;5031533;28;949;-76
2023/01/20 02:41:00;;;;;;;;;;;;;;;;;;5031330;28;916;-76
2023/01/20 02:43:33;;;;;;;;;;;;;;;;;;5031910;28;1054;-76
2023/01/20 02:46:04;;;;;;;;;;;;;;;;;;5031280;28;1984;-76
2023/01/20 02:48:32;;;;;;;;;;;;;;;;;;5030207;28;1239;-76
2023/01/20 02:51:15;;;;;;;;;;;;;;;;;;5030641;28;926;-76
2023/01/20 02:53:48;;;;;;;;;;;;;;;;;;5030702;28;1279;-76
2023/01/20 02:56:14;;;;;;;;;;;;;;;;;;5030539;28;1290;-76
2023/01/20 02:58:47;;;;;;;;;;;;;;;;;;5030272;28;1318;-76
2023/01/20 03:01:16;;;;;;;;;;;;;;;;;;5030391;28;1215;-76
2023/01/20 03:03:43;;;;;;;;;;;;;;;;;;5031610;28;913;-76
2023/01/20 03:06:11;;;;;;;;;;;;;;;;;;5030313;28;1969;-76
2023/01/20 03:08:38;;;;;;;;;;;;;;;;;;5031423;28;1067;-76
2023/01/20 03:11:05;;;;;;;;;;;;;;;;;;5031280;28;815;-76
2023/01/20 03:13:37;;;;;;;;;;;;;;;;;;5029800;28;1192;-76
2023/01/20 03:16:05;;;;;;;;;;;;;;;;;;5029339;28;1223;-76
2023/01/20 03:18:31;;;;;;;;;;;;;;;;;;5033215;28;903;-76
2023/01/20 03:20:58;;;;;;;;;;;;;;;;;;5034183;28;1109;-76
2023/01/20 03:23:25;;;;;;;;;;;;;;;;;;5031984;28;1306;-76
2023/01/20 03:25:50;;;;;;;;;;;;;;;;;;5032590;28;1922;-76
2023/01/20 03:28:15;;;;;;;;;;;;;;;;;;5032577;28;1247;-76
2023/01/20 03:30:41;;;;;;;;;;;;;;;;;;5014815;28;1476;-76
2023/01/20 03:33:07;;;;;;;;;;;;;;;;;;5032844;28;1243;-76
2023/01/20 03:35:34;;;;;;;;;;;;;;;;;;5033377;28;1237;-76
2023/01/20 03:38:00;;;;;;;;;;;;;;;;;;5034157;28;887;-76
2023/01/20 03:40:30;;;;;;;;;;;;;;;;;;5034318;28;979;-76
2023/01/20 03:42:55;;;;;;;;;;;;;;;;;;5034548;28;923;-76
2023/01/20 03:45:39;;;;;;;;;;;;;;;;;;5033087;28;1914;-76
2023/01/20 03:48:15;;;;;;;;;;;;;;;;;;5033726;28;905;-76
2023/01/20 03:50:50;;;;;;;;;;;;;;;;;;5033901;28;967;-76
2023/01/20 03:53:31;;;;;;;;;;;;;;;;;;5032940;28;1176;-76
2023/01/20 03:56:07;;;;;;;;;;;;;;;;;;5032329;28;1168;-76
2023/01/20 03:58:35;;;;;;;;;;;;;;;;;;5033771;28;793;-76
2023/01/20 04:01:03;;;;;;;;;;;;;;;;;;5033855;28;896;-76
2023/01/20 04:03:30;;;;;;;;;;;;;;;;;;5034075;28;841;-76
2023/01/20 04:05:57;;;;;;;;;;;;;;;;;;5034092;28;1906;-77
2023/01/20 04:08:25;;;;;;;;;;;;;;;;;;5033845;28;1078;-78
2023/01/20 04:10:51;;;;;;;;;;;;;;;;;;5033637;28;1352;-78
2023/01/20 04:13:17;;;;;;;;;;;;;;;;;;5034048;28;1306;-78
2023/01/20 04:15:44;;;;;;;;;;;;;;;;;;5035171;28;880;-77
2023/01/20 04:18:16;;;;;;;;;;;;;;;;;;5033300;28;1189;-77
2023/01/20 04:20:48;;;;;;;;;;;;;;;;;;5033465;28;1176;-77
2023/01/20 04:23:21;;;;;;;;;;;;;;;;;;5034836;28;826;-78
2023/01/20 04:25:47;;;;;;;;;;;;;;;;;;5033425;28;1918;-77
2023/01/20 04:28:12;;;;;;;;;;;;;;;;;;5016675;28;1307;-79
2023/01/20 04:30:37;;;;;;;;;;;;;;;;;;5032449;28;1173;-79
2023/01/20 04:33:03;;;;;;;;;;;;;;;;;;5015428;28;1199;-79
2023/01/20 04:35:28;;;;;;;;;;;;;;;;;;5033915;28;909;-79
2023/01/20 04:37:53;;;;;;;;;;;;;;;;;;5033790;28;951;-79
2023/01/20 04:40:19;;;;;;;;;;;;;;;;;;5034249;28;850;-78
2023/01/20 04:42:44;;;;;;;;;;;;;;;;;;5032506;28;923;-78
2023/01/20 04:45:13;;;;;;;;;;;;;;;;;;5015631;28;1914;-78
2023/01/20 04:47:38;;;;;;;;;;;;;;;;;;5032272;28;1192;-78
2023/01/20 04:50:04;;;;;;;;;;;;;;;;;;5033359;28;817;-78
2023/01/20 04:52:29;;;;;;;;;;;;;;;;;;5033402;28;837;-79
2023/01/20 04:54:54;;;;;;;;;;;;;;;;;;5031729;28;880;-78
2023/01/20 04:57:19;;;;;;;;;;;;;;;;;;5015987;28;1175;-79
2023/01/20 04:59:45;;;;;;;;;;;;;;;;;;5015264;28;1316;-78
2023/01/20 05:02:10;;;;;;;;;;;;;;;;;;5032971;28;885;-79
2023/01/20 05:04:36;;;;;;;;;;;;;;;;;;5031790;28;1157;-79
2023/01/20 05:07:02;;;;;;;;;;;;;;;;;;5014764;28;1918;-79
2023/01/20 05:09:27;;;;;;;;;;;;;;;;;;5032445;28;1090;-78
2023/01/20 05:11:52;;;;;;;;;;;;;;;;;;5031174;28;979;-78
2023/01/20 05:14:18;;;;;;;;;;;;;;;;;;5031912;28;1268;-79
2023/01/20 05:16:43;;;;;;;;;;;;;;;;;;5031687;28;934;-78
2023/01/20 05:19:11;;;;;;;;;;;;;;;;;;5031296;28;818;-79
2023/01/20 05:21:37;;;;;;;;;;;;;;;;;;5031571;28;1213;-79
2023/01/20 05:24:02;;;;;;;;;;;;;;;;;;5032328;28;892;-78
2023/01/20 05:26:27;;;;;;;;;;;;;;;;;;5031372;28;1932;-78
2023/01/20 05:28:53;;;;;;;;;;;;;;;;;;5032700;28;849;-78
2023/01/20 05:31:18;;;;;;;;;;;;;;;;;;5031190;28;1456;-79
2023/01/20 05:33:44;;;;;;;;;;;;;;;;;;5030932;28;1077;-78
2023/01/20 05:36:10;;;;;;;;;;;;;;;;;;5030758;28;948;-78
2023/01/20 05:38:35;;;;;;;;;;;;;;;;;;5031451;28;1302;-78
2023/01/20 05:41:05;;;;;;;;;;;;;;;;;;5030208;28;1212;-78
2023/01/20 05:43:30;;;;;;;;;;;;;;;;;;5030848;28;1358;-78
2023/01/20 05:45:56;;;;;;;;;;;;;;;;;;5031936;28;1959;-78
2023/01/20 05:48:21;;;;;;;;;;;;;;;;;;5013490;28;1295;-78
2023/01/20 05:50:47;;;;;;;;;;;;;;;;;;5029638;28;1295;-78
2023/01/20 05:53:12;;;;;;;;;;;;;;;;;;5013935;28;1203;-78
2023/01/20 05:55:37;;;;;;;;;;;;;;;;;;5030973;28;897;-78
2023/01/20 05:58:03;;;;;;;;;;;;;;;;;;5030643;28;1167;-78
2023/01/20 06:00:28;;;;;;;;;;;;;;;;;;5030961;28;1387;-78
2023/01/20 06:02:54;;;;;;;;;;;;;;;;;;5032012;28;880;-79
2023/01/20 06:05:19;;;;;;;;;;;;;;;;;;5030397;28;1902;-78
2023/01/20 06:07:45;;;;;;;;;;;;;;;;;;5030830;28;877;-78
2023/01/20 06:10:10;;;;;;;;;;;;;;;;;;5013207;28;1240;-79
2023/01/20 06:12:35;;;;;;;;;;;;;;;;;;5031724;28;979;-78
2023/01/20 06:15:00;;;;;;;;;;;;;;;;;;5030080;28;1433;-78
2023/01/20 06:17:26;;;;;;;;;;;;;;;;;;5030322;28;908;-77
2023/01/20 06:19:51;;;;;;;;;;;;;;;;;;5014366;28;1007;-77
2023/01/20 06:22:19;;;;;;;;;;;;;;;;;;5031025;28;1327;-78
2023/01/20 06:24:44;;;;;;;;;;;;;;;;;;5014731;28;1220;-77
2023/01/20 06:27:09;;;;;;;;;;;;;;;;;;5013825;28;1934;-77
2023/01/20 06:29:35;;;;;;;;;;;;;;;;;;5030930;28;1255;-78
2023/01/20 06:32:00;;;;;;;;;;;;;;;;;;5013929;28;1192;-78
2023/01/20 06:34:25;;;;;;;;;;;;;;;;;;5031039;28;1295;-79
2023/01/20 06:36:51;;;;;;;;;;;;;;;;;;5030914;28;1329;-78
2023/01/20 06:39:17;;;;;;;;;;;;;;;;;;5030560;28;1046;-78
2023/01/20 06:41:42;;;;;;;;;;;;;;;;;;5014020;28;1358;-78
2023/01/20 06:44:07;;;;;;;;;;;;;;;;;;5014016;28;1200;-78
2023/01/20 06:46:33;;;;;;;;;;;;;;;;;;5030256;28;1967;-79
2023/01/20 06:49:01;;;;;;;;;;;;;;;;;;5030759;28;1173;-79
2023/01/20 06:51:28;;;;;;;;;;;;;;;;;;5030340;28;1207;-79
2023/01/20 06:53:53;;;;;;;;;;;;;;;;;;5033678;28;1231;-80
2023/01/20 06:56:19;;;;;;;;;;;;;;;;;;5034046;28;1215;-79
2023/01/20 06:58:44;;;;;;;;;;;;;;;;;;5017367;28;1297;-79
2023/01/20 07:01:11;;;;;;;;;;;;;;;;;;5033441;28;980;-77
2023/01/20 07:03:36;;;;;;;;;;;;;;;;;;5033876;28;1226;-79
2023/01/20 07:06:03;;;;;;;;;;;;;;;;;;5033740;28;1906;-78
2023/01/20 07:08:28;;;;;;;;;;;;;;;;;;5034327;28;1307;-78
2023/01/20 07:10:54;;;;;;;;;;;;;;;;;;5034027;28;1204;-78
2023/01/20 07:13:19;;;;;;;;;;;;;;;;;;5033585;28;948;-78
2023/01/20 07:15:45;;;;;;;;;;;;;;;;;;5034112;28;829;-78
2023/01/20 07:18:10;;;;;;;;;;;;;;;;;;5033716;28;1019;-77
2023/01/20 07:20:37;;;;;;;;;;;;;;;;;;5035283;28;987;-76
2023/01/20 07:23:03;;;;;;;;;;;;;;;;;;5017167;28;1196;-80
2023/01/20 07:25:29;;;;;;;;;;;;;;;;;;5034618;28;1906;-80
2023/01/20 07:27:56;;;;;;;;;;;;;;;;;;5017365;28;1295;-81
2023/01/20 07:30:22;;;;;;;;;;;;;;;;;;5017208;28;1130;-81
2023/01/20 07:32:47;;;;;;;;;;;;;;;;;;5035104;28;956;-81
2023/01/20 07:35:12;;;;;;;;;;;;;;;;;;5033343;28;865;-80
2023/01/20 07:37:37;;;;;;;;;;;;;;;;;;5033479;28;1184;-81
2023/01/20 07:40:03;;;;;;;;;;;;;;;;;;5036508;28;1121;-81
2023/01/20 07:42:28;;;;;;;;;;;;;;;;;;5037653;28;922;-80
2023/01/20 07:44:53;;;;;;;;;;;;;;;;;;5019634;28;1196;-80
2023/01/20 07:47:19;;;;;;;;;;;;;;;;;;5033001;28;1894;-80
2023/01/20 07:49:44;;;;;;;;;;;;;;;;;;5016857;28;1355;-80
2023/01/20 07:52:09;;;;;;;;;;;;;;;;;;5032863;28;857;-80
2023/01/20 07:54:34;;;;;;;;;;;;;;;;;;5016628;28;1104;-80
2023/01/20 07:57:00;;;;;;;;;;;;;;;;;;5034922;28;813;-80
2023/01/20 07:59:25;;;;;;;;;;;;;;;;;;5016682;28;1176;-80
2023/01/20 08:01:51;;;;;;;;;;;;;;;;;;5034316;28;1522;-81
2023/01/20 08:04:17;;;;;;;;;;;;;;;;;;5014775;28;1240;-80
2023/01/20 08:06:42;;;;;;;;;;;;;;;;;;5016518;28;1910;-79
2023/01/20 08:09:11;;;;;;;;;;;;;;;;;;5032749;28;1351;-81
2023/01/20 08:11:36;;;;;;;;;;;;;;;;;;5033345;28;1322;-80
2023/01/20 08:14:02;;;;;;;;;;;;;;;;;;5033548;28;1156;-82
2023/01/20 08:16:27;;;;;;;;;;;;;;;;;;5033284;28;934;-81
2023/01/20 08:18:53;;;;;;;;;;;;;;;;;;5015591;28;1276;-82
2023/01/20 08:21:29;;;;;;;;;;;;;;;;;;5030085;28;1394;-81
2023/01/20 08:23:55;;;;;;;;;;;;;;;;;;5028181;28;1318;-82
2023/01/20 08:26:23;;;;;;;;;;;;;;;;;;5031921;28;1910;-81
2023/01/20 08:28:48;;;;;;;;;;;;;;;;;;5032793;28;1281;-81
2023/01/20 08:31:15;;;;;;;;;;;;;;;;;;5033306;28;912;-81
2023/01/20 08:33:44;;;;;;;;;;;;;;;;;;5032191;28;1529;-80
2023/01/20 08:36:14;;;;;;;;;;;;;;;;;;5033907;28;856;-81
2023/01/20 08:38:40;;;;;;;;;;;;;;;;;;5033690;28;861;-81
2023/01/20 08:41:09;;;;;;;;;;;;;;;;;;5031771;28;1304;-81
2023/01/20 08:43:35;;;;;;;;;;;;;;;;;;5032551;28;1516;-82
2023/01/20 08:46:01;;;;;;;;;;;;;;;;;;5015740;28;1969;-82
2023/01/20 08:48:27;;;;;;;;;;;;;;;;;;5031727;28;1192;-82
2023/01/20 08:50:52;;;;;;;;;;;;;;;;;;5015544;28;1180;-82
2023/01/20 08:53:17;;;;;;;;;;;;;;;;;;5031794;28;996;-81
2023/01/20 08:55:43;;;;;;;;;;;;;;;;;;5031544;28;924;-83
2023/01/20 08:58:08;;;;;;;;;;;;;;;;;;5031458;28;1071;-83
2023/01/20 09:00:33;;;;;;;;;;;;;;;;;;5031530;28;1026;-82
2023/01/20 09:02:59;;;;;;;;;;;;;;;;;;5033300;28;860;-82
2023/01/20 09:05:26;;;;;;;;;;;;;;;;;;5031938;28;1894;-82
2023/01/20 09:07:51;;;;;;;;;;;;;;;;;;5015666;28;1295;-76
2023/01/20 09:10:18;;;;;;;;;;;;;;;;;;5014419;28;1306;-83
2023/01/20 09:12:44;;;;;;;;;;;;;;;;;;5032432;28;884;-83
2023/01/20 09:15:10;;;;;;;;;;;;;;;;;;5031670;28;818;-82
2023/01/20 09:17:35;;;;;;;;;;;;;;;;;;5032151;28;1356;-82
2023/01/20 09:20:01;;;;;;;;;;;;;;;;;;5032012;28;1081;-82
2023/01/20 09:22:26;;;;;;;;;;;;;;;;;;5032395;28;1315;-82
2023/01/20 09:24:51;;;;;;;;;;;;;;;;;;5015464;28;1191;-81
2023/01/20 09:27:17;;;;;;;;;;;;;;;;;;5015160;28;1946;-80
2023/01/20 09:29:42;;;;;;;;;;;;;;;;;;5015682;28;1324;-81
2023/01/20 09:32:07;;;;;;;;;;;;;;;;;;5031578;28;1482;-80
2023/01/20 09:34:33;;;;;;;;;;;;;;;;;;5031499;28;865;-81
2023/01/20 09:43:52;;;;;;;;;;;;;;;;;;5031503;28;1346;-81
2023/01/20 09:45:24;;;;;;;;;;;;;;;;;;5032164;28;1910;-82
2023/01/20 09:47:50;;;;;;;;;;;;;;;;;;5030884;28;1085;-81
2023/01/20 09:53:14;;;;;;;;;;;;;;;;;;5032410;28;654;-82
2023/01/20 09:55:42;;;;;;;;;;;;;;;;;;5030934;28;1236;-81
2023/01/20 09:58:26;;;;;;;;;;;;;;;;;;5030980;28;1277;-82
2023/01/20 10:00:54;;;;;;;;;;;;;;;;;;5030507;28;1203;-82
2023/01/20 10:03:24;;;;;;;;;;;;;;;;;;5030382;28;1118;-82
2023/01/20 10:05:51;;;;;;;;;;;;;;;;;;5030907;28;1898;-82
2023/01/20 10:08:23;;;;;;;;;;;;;;;;;;5030604;28;1757;-82
2023/01/20 10:10:53;;;;;;;;;;;;;;;;;;5030740;28;1688;-82
2023/01/20 10:13:31;;;;;;;;;;;;;;;;;;5030172;28;1472;-82
2023/01/20 10:15:59;;;;;;;;;;;;;;;;;;5030467;28;1503;-82
2023/01/20 10:18:33;;;;;;;;;;;;;;;;;;5030434;28;1404;-82
2023/01/20 10:21:19;;;;;;;;;;;;;;;;;;5030326;28;1107;-82
2023/01/20 10:23:53;;;;;;;;;;;;;;;;;;5032031;28;1005;-82
2023/01/20 10:26:29;;;;;;;;;;;;;;;;;;5030293;28;1914;-83
2023/01/20 10:29:02;;;;;;;;;;;;;;;;;;5030440;28;1442;-82
2023/01/20 10:31:31;;;;;;;;;;;;;;;;;;5030434;28;1223;-82
2023/01/20 10:34:11;;;;;;;;;;;;;;;;;;5031857;28;846;-82
2023/01/20 10:36:37;;;;;;;;;;;;;;;;;;5030636;28;1310;-82
2023/01/20 10:39:04;;;;;;;;;;;;;;;;;;5030473;28;1298;-82
2023/01/20 10:41:29;;;;;;;;;;;;;;;;;;5031731;28;896;-82
2023/01/20 10:43:55;;;;;;;;;;;;;;;;;;5030943;28;1341;-82
2023/01/20 10:46:26;;;;;;;;;;;;;;;;;;5031020;28;1981;-82
2023/01/20 10:49:10;;;;;;;;;;;;;;;;;;5032222;28;889;-81
2023/01/20 10:51:51;;;;;;;;;;;;;;;;;;5030775;28;1119;-81
2023/01/20 10:54:16;;;;;;;;;;;;;;;;;;5030542;28;1204;-81
2023/01/20 10:56:44;;;;;;;;;;;;;;;;;;5030431;28;1468;-81
2023/01/20 10:59:15;;;;;;;;;;;;;;;;;;5032086;28;928;-81
2023/01/20 11:01:44;;;;;;;;;;;;;;;;;;5030868;28;1192;-82
2023/01/20 11:04:15;;;;;;;;;;;;;;;;;;5032249;28;980;-82
2023/01/20 11:06:41;;;;;;;;;;;;;;;;;;5030910;28;1975;-81
2023/01/20 11:09:22;;;;;;;;;;;;;;;;;;5030909;28;1225;-82
2023/01/20 11:11:48;;;;;;;;;;;;;;;;;;5030809;28;1176;-81
2023/01/20 11:14:13;;;;;;;;;;;;;;;;;;5031524;28;852;-81
2023/01/20 11:16:41;;;;;;;;;;;;;;;;;;5014511;28;1189;-81
2023/01/20 11:19:06;;;;;;;;;;;;;;;;;;5031553;28;825;-81
2023/01/20 11:21:35;;;;;;;;;;;;;;;;;;5014101;28;1236;-81
2023/01/20 11:24:02;;;;;;;;;;;;;;;;;;5030547;28;1179;-80
2023/01/20 11:26:32;;;;;;;;;;;;;;;;;;5030593;28;1910;-81
2023/01/20 11:28:57;;;;;;;;;;;;;;;;;;5032142;28;1003;-81
2023/01/20 11:31:37;;;;;;;;;;;;;;;;;;5030402;28;1208;-80
2023/01/20 11:34:17;;;;;;;;;;;;;;;;;;5029825;28;1279;-80
2023/01/20 11:36:42;;;;;;;;;;;;;;;;;;5031506;28;786;-80
2023/01/20 11:39:22;;;;;;;;;;;;;;;;;;5032018;28;1295;-80
2023/01/20 11:41:48;;;;;;;;;;;;;;;;;;5034750;28;892;-81
2023/01/20 11:44:18;;;;;;;;;;;;;;;;;;5033482;28;1393;-80
2023/01/20 11:46:43;;;;;;;;;;;;;;;;;;5033904;28;1965;-80
2023/01/20 11:49:21;;;;;;;;;;;;;;;;;;5033785;28;1254;-80
2023/01/20 11:51:48;;;;;;;;;;;;;;;;;;5033232;28;1066;-80
2023/01/20 11:54:15;;;;;;;;;;;;;;;;;;5033577;28;1393;-81
2023/01/20 11:56:45;;;;;;;;;;;;;;;;;;5033958;28;1227;-81
2023/01/20 11:59:26;;;;;;;;;;;;;;;;;;5033440;28;1374;-80
2023/01/20 12:01:54;;;;;;;;;;;;;;;;;;5033920;28;1211;-80
2023/01/20 12:04:40;;;;;;;;;;;;;;;;;;5033374;28;1454;-75
2023/01/20 12:07:13;;;;;;;;;;;;;;;;;;5032943;28;1910;-75
2023/01/20 12:09:41;;;;;;;;;;;;;;;;;;5032809;28;1451;-75
2023/01/20 12:12:19;;;;;;;;;;;;;;;;;;5033004;28;1369;-75
2023/01/20 12:14:51;;;;;;;;;;;;;;;;;;5033213;28;1365;-75
2023/01/20 12:17:36;;;;;;;;;;;;;;;;;;5034414;28;915;-75
2023/01/20 12:20:10;;;;;;;;;;;;;;;;;;5033985;28;1370;-75
2023/01/20 12:22:40;;;;;;;;;;;;;;;;;;5048773;28;1061;-76
2023/01/20 12:25:13;;;;;;;;;;;;;;;;;;5050218;28;946;-76
2023/01/20 12:27:49;;;;;;;;;;;;;;;;;;5049405;28;1267;-75
2023/01/20 12:30:35;;;;;;;;;;;;;;;;;;5050115;28;1007;-76
2023/01/20 12:33:01;;;;;;;;;;;;;;;;;;5047294;28;1268;-75
2023/01/20 12:35:28;;;;;;;;;;;;;;;;;;5046006;28;1287;-76
2023/01/20 12:38:01;;;;;;;;;;;;;;;;;;5049298;28;1166;-76
2023/01/20 12:40:45;;;;;;;;;;;;;;;;;;5047888;28;1326;-76
2023/01/20 12:43:10;;;;;;;;;;;;;;;;;;5039668;28;1332;-76
2023/01/20 12:45:35;;;;;;;;;;;;;;;;;;5039065;28;1959;-76
2023/01/20 12:48:07;;;;;;;;;;;;;;;;;;5038020;28;1219;-76
2023/01/20 12:50:48;;;;;;;;;;;;;;;;;;5037299;28;1356;-76
2023/01/20 12:53:37;;;;;;;;;;;;;;;;;;5037437;28;1369;-75
2023/01/20 12:56:09;;;;;;;;;;;;;;;;;;5039291;28;1247;-76
2023/01/20 12:58:55;;;;;;;;;;;;;;;;;;5035922;28;1365;-75
2023/01/20 13:01:20;;;;;;;;;;;;;;;;;;5042140;28;1318;-75
2023/01/20 13:04:01;;;;;;;;;;;;;;;;;;5042107;28;1199;-76
2023/01/20 13:06:45;;;;;;;;;;;;;;;;;;5038564;28;1879;-76
2023/01/20 13:09:19;;;;;;;;;;;;;;;;;;5037534;28;1158;-76
2023/01/20 13:11:53;;;;;;;;;;;;;;;;;;5037762;28;1255;-76
2023/01/20 13:14:26;;;;;;;;;;;;;;;;;;5037158;28;1295;-76
2023/01/20 13:17:11;;;;;;;;;;;;;;;;;;5038930;28;900;-76
2023/01/20 13:19:40;;;;;;;;;;;;;;;;;;5031129;28;1187;-76
2023/01/20 13:22:14;;;;;;;;;;;;;;;;;;5038247;28;837;-76
2023/01/20 13:24:42;;;;;;;;;;;;;;;;;;5036999;28;1302;-76
2023/01/20 13:27:08;;;;;;;;;;;;;;;;;;5037209;28;1926;-76
2023/01/20 13:30:03;;;;;;;;;;;;;;;;;;5037256;28;901;-76
2023/01/20 13:32:31;;;;;;;;;;;;;;;;;;5024120;28;1245;-76
2023/01/20 13:34:57;;;;;;;;;;;;;;;;;;5038097;28;927;-75
2023/01/20 13:37:24;;;;;;;;;;;;;;;;;;5038277;28;920;-76
2023/01/20 13:39:50;;;;;;;;;;;;;;;;;;5038011;28;1164;-76
2023/01/20 13:42:28;;;;;;;;;;;;;;;;;;5037840;28;1364;-75
2023/01/20 13:45:11;;;;;;;;;;;;;;;;;;5038745;28;952;-75
2023/01/20 13:47:46;;;;;;;;;;;;;;;;;;5036588;28;1999;-74
2023/01/20 13:50:24;;;;;;;;;;;;;;;;;;5037041;28;1111;-75
2023/01/20 13:52:50;;;;;;;;;;;;;;;;;;5037611;28;951;-74
2023/01/20 13:55:34;;;;;;;;;;;;;;;;;;5038656;28;797;-75
2023/01/20 13:57:59;;;;;;;;;;;;;;;;;;5036059;28;1769;-75
2023/01/20 14:00:25;;;;;;;;;;;;;;;;;;5020090;28;1193;-76
2023/01/20 14:02:51;;;;;;;;;;;;;;;;;;5017991;28;1232;-75
2023/01/20 14:05:21;;;;;;;;;;;;;;;;;;5036587;28;1958;-75
2023/01/20 14:07:47;;;;;;;;;;;;;;;;;;5033480;28;1352;-75
2023/01/20 14:10:15;;;;;;;;;;;;;;;;;;5032815;28;1259;-75
2023/01/20 14:12:40;;;;;;;;;;;;;;;;;;5031733;28;1315;-71
2023/01/20 14:15:06;;;;;;;;;;;;;;;;;;5031270;28;988;-70
2023/01/20 14:17:31;;;;;;;;;;;;;;;;;;5031435;28;1235;-70
2023/01/20 14:19:56;;;;;;;;;;;;;;;;;;5031546;28;912;-71
2023/01/20 14:22:23;;;;;;;;;;;;;;;;;;5031884;28;833;-70
2023/01/20 14:24:51;;;;;;;;;;;;;;;;;;5032225;28;967;-70
2023/01/20 14:27:19;;;;;;;;;;;;;;;;;;5030649;28;1906;-70
2023/01/20 14:29:46;;;;;;;;;;;;;;;;;;5031408;28;872;-70
2023/01/20 14:32:14;;;;;;;;;;;;;;;;;;5030422;28;1226;-71
2023/01/20 14:34:39;;;;;;;;;;;;;;;;;;5030846;28;1299;-71
2023/01/20 14:37:19;;;;;;;;;;;;;;;;;;5030331;28;849;-71
2023/01/20 14:39:48;;;;;;;;;;;;;;;;;;5031629;28;963;-70
2023/01/20 14:42:17;;;;;;;;;;;;;;;;;;5030142;28;1294;-71
2023/01/20 14:44:45;;;;;;;;;;;;;;;;;;5029280;28;1358;-70
2023/01/20 14:47:10;;;;;;;;;;;;;;;;;;5030001;28;1893;-71
2023/01/20 14:49:39;;;;;;;;;;;;;;;;;;5030245;28;1136;-70
2023/01/20 14:52:09;;;;;;;;;;;;;;;;;;5014166;28;1405;-71
2023/01/20 14:54:36;;;;;;;;;;;;;;;;;;5030462;28;1091;-70
2023/01/20 14:57:16;;;;;;;;;;;;;;;;;;5030408;28;1350;-70
2023/01/20 14:59:42;;;;;;;;;;;;;;;;;;5030240;28;1327;-70
2023/01/20 15:02:14;;;;;;;;;;;;;;;;;;5032270;28;979;-72
2023/01/20 15:04:40;;;;;;;;;;;;;;;;;;5032151;28;1256;-73
2023/01/20 15:07:11;;;;;;;;;;;;;;;;;;5033218;28;1944;-74
2023/01/20 15:09:40;;;;;;;;;;;;;;;;;;5033516;28;1205;-72
2023/01/20 15:12:24;;;;;;;;;;;;;;;;;;5030487;28;1271;-72
2023/01/20 15:15:05;;;;;;;;;;;;;;;;;;5033424;28;1171;-72
2023/01/20 15:17:30;;;;;;;;;;;;;;;;;;5034173;28;1260;-73
2023/01/20 15:19:55;;;;;;;;;;;;;;;;;;5017299;28;1286;-72
2023/01/20 15:22:21;;;;;;;;;;;;;;;;;;5033966;28;1252;-72
2023/01/20 15:24:48;;;;;;;;;;;;;;;;;;5033768;28;1369;-72
2023/01/20 15:27:21;;;;;;;;;;;;;;;;;;5033429;28;1960;-72
2023/01/20 15:30:00;;;;;;;;;;;;;;;;;;5035749;28;833;-72
2023/01/20 15:32:26;;;;;;;;;;;;;;;;;;5035197;28;900;-72
2023/01/20 15:34:51;;;;;;;;;;;;;;;;;;5033781;28;1153;-72
2023/01/20 15:37:17;;;;;;;;;;;;;;;;;;5017790;28;1252;-72
2023/01/20 15:39:43;;;;;;;;;;;;;;;;;;5034845;28;956;-72
2023/01/20 15:42:10;;;;;;;;;;;;;;;;;;5034529;28;1037;-71
2023/01/20 15:44:35;;;;;;;;;;;;;;;;;;5033046;28;1176;-72
2023/01/20 15:47:00;;;;;;;;;;;;;;;;;;5032257;28;1969;-72
2023/01/20 15:49:25;;;;;;;;;;;;;;;;;;5033296;28;898;-72
2023/01/20 15:51:53;;;;;;;;;;;;;;;;;;5015541;28;1209;-72
2023/01/20 15:54:20;;;;;;;;;;;;;;;;;;5030318;28;1295;-71
2023/01/20 15:56:46;;;;;;;;;;;;;;;;;;5030962;28;1279;-72
2023/01/20 15:59:15;;;;;;;;;;;;;;;;;;5034278;28;841;-72
2023/01/20 16:01:40;;;;;;;;;;;;;;;;;;5033253;28;1311;-71
2023/01/20 16:04:06;;;;;;;;;;;;;;;;;;5033152;28;1348;-72
2023/01/20 16:06:32;;;;;;;;;;;;;;;;;;5033110;28;1960;-70
2023/01/20 16:08:59;;;;;;;;;;;;;;;;;;5032730;28;1197;-72
2023/01/20 16:11:25;;;;;;;;;;;;;;;;;;5032992;28;1361;-72
2023/01/20 16:13:50;;;;;;;;;;;;;;;;;;5016703;28;1279;-72
2023/01/20 16:16:17;;;;;;;;;;;;;;;;;;5032590;28;1168;-73
2023/01/20 16:18:43;;;;;;;;;;;;;;;;;;5034114;28;987;-71
2023/01/20 16:21:11;;;;;;;;;;;;;;;;;;5033762;28;787;-71
2023/01/20 16:23:37;;;;;;;;;;;;;;;;;;5032867;28;1203;-72
2023/01/20 16:26:13;;;;;;;;;;;;;;;;;;5032085;28;1977;-71
2023/01/20 16:28:38;;;;;;;;;;;;;;;;;;5034069;28;919;-71
2023/01/20 16:31:04;;;;;;;;;;;;;;;;;;5032719;28;1307;-71
2023/01/20 16:33:29;;;;;;;;;;;;;;;;;;5033091;28;1210;-72
2023/01/20 16:35:55;;;;;;;;;;;;;;;;;;5032372;28;1318;-72
2023/01/20 16:38:21;;;;;;;;;;;;;;;;;;5032665;28;1188;-72
2023/01/20 16:40:51;;;;;;;;;;;;;;;;;;5034047;28;979;-72
2023/01/20 16:43:18;;;;;;;;;;;;;;;;;;5031323;28;1291;-72
2023/01/20 16:45:46;;;;;;;;;;;;;;;;;;5032137;28;1957;-72
2023/01/20 16:48:11;;;;;;;;;;;;;;;;;;5032034;28;1196;-72
2023/01/20 16:50:37;;;;;;;;;;;;;;;;;;5029472;28;1220;-72
2023/01/20 16:53:02;;;;;;;;;;;;;;;;;;5031159;28;1362;-72
2023/01/20 16:55:28;;;;;;;;;;;;;;;;;;5031800;28;1333;-72
2023/01/20 16:57:53;;;;;;;;;;;;;;;;;;5015613;28;1204;-72
2023/01/20 17:00:19;;;;;;;;;;;;;;;;;;5031801;28;1314;-71
2023/01/20 17:02:47;;;;;;;;;;;;;;;;;;5015246;28;1212;-71
2023/01/20 17:05:12;;;;;;;;;;;;;;;;;;5030500;28;1240;-72
2023/01/20 17:07:38;;;;;;;;;;;;;;;;;;5028840;28;1956;-72
2023/01/20 17:10:03;;;;;;;;;;;;;;;;;;5032664;28;1169;-72
2023/01/20 17:12:28;;;;;;;;;;;;;;;;;;5015553;28;1248;-72
2023/01/20 17:14:54;;;;;;;;;;;;;;;;;;5031609;28;1310;-72
2023/01/20 17:17:21;;;;;;;;;;;;;;;;;;5030749;28;1346;-71
2023/01/20 17:19:46;;;;;;;;;;;;;;;;;;5015318;28;1282;-71
2023/01/20 17:22:12;;;;;;;;;;;;;;;;;;5030912;28;1263;-72
2023/01/20 17:24:38;;;;;;;;;;;;;;;;;;5014977;28;1216;-72